Time,TemperatureF,DewpointF,PressureIn,WindDirection,WindDirectionDegrees,WindSpeedMPH,WindSpeedGustMPH,Humidity,HourlyPrecipIn,Conditions,Clouds,dailyrainin,SoftwareType,DateUTC
2013-07-09 00:00:00,59.0,48.5,29.95,North,0,0.0,-999.0,68,-99.99,,,0.00,Acu-Link.com,2013-07-09 07:00:00,
2013-07-09 00:16:00,59.0,49.2,29.96,NW,315,0.0,-999.0,70,-99.99,,,0.00,Acu-Link.com,2013-07-09 07:16:00,
2013-07-09 00:31:00,59.0,49.6,29.96,NE,45,0.0,-999.0,71,-99.99,,,0.00,Acu-Link.com,2013-07-09 07:31:00,
2013-07-09 00:46:00,59.0,48.8,29.96,ENE,67,0.0,-999.0,69,-99.99,,,0.00,Acu-Link.com,2013-07-09 07:46:00,
2013-07-09 01:01:00,57.2,47.9,29.96,South,180,0.0,-999.0,71,-99.99,,,0.00,Acu-Link.com,2013-07-09 08:01:00,
2013-07-09 01:17:00,55.4,46.9,29.97,NNE,22,0.0,-999.0,73,-99.99,,,0.00,Acu-Link.com,2013-07-09 08:17:00,
2013-07-09 01:32:00,55.4,47.3,29.97,NNE,22,0.0,-999.0,74,-99.99,,,0.00,Acu-Link.com,2013-07-09 08:32:00,
2013-07-09 01:47:00,55.4,47.3,29.97,NE,45,0.0,-999.0,74,-99.99,,,0.00,Acu-Link.com,2013-07-09 08:47:00,
2013-07-09 02:02:00,55.4,46.9,29.97,NE,45,0.0,-999.0,73,-99.99,,,0.00,Acu-Link.com,2013-07-09 09:02:00,
2013-07-09 02:17:00,53.6,46.2,29.97,NE,45,0.0,-999.0,76,-99.99,,,0.00,Acu-Link.com,2013-07-09 09:17:00,
2013-07-09 02:32:00,53.6,47.6,29.97,SSW,202,0.0,-999.0,80,-99.99,,,0.00,Acu-Link.com,2013-07-09 09:32:00,
2013-07-09 02:48:00,53.6,48.6,29.98,NE,45,0.0,-999.0,83,-99.99,,,0.00,Acu-Link.com,2013-07-09 09:48:00,
2013-07-09 03:03:00,53.6,45.9,29.98,NE,45,0.0,-999.0,75,-99.99,,,0.00,Acu-Link.com,2013-07-09 10:03:00,
2013-07-09 03:18:00,53.6,46.6,29.98,SW,225,0.0,-999.0,77,-99.99,,,0.00,Acu-Link.com,2013-07-09 10:18:00,
2013-07-09 03:33:00,51.8,45.8,29.99,ENE,67,0.0,-999.0,80,-99.99,,,0.00,Acu-Link.com,2013-07-09 10:33:00,
2013-07-09 03:48:00,51.8,46.2,29.99,South,180,0.0,-999.0,81,-99.99,,,0.00,Acu-Link.com,2013-07-09 10:48:00,
2013-07-09 04:03:00,50.0,45.4,29.99,SSE,157,0.0,-999.0,84,-99.99,,,0.00,Acu-Link.com,2013-07-09 11:03:00,
2013-07-09 04:18:00,50.0,45.0,30.00,NE,45,0.0,-999.0,83,-99.99,,,0.00,Acu-Link.com,2013-07-09 11:18:00,
2013-07-09 04:33:00,50.0,45.0,30.00,ESE,112,0.0,-999.0,83,-99.99,,,0.00,Acu-Link.com,2013-07-09 11:33:00,
2013-07-09 04:48:00,50.0,46.0,30.00,ESE,112,0.0,-999.0,86,-99.99,,,0.00,Acu-Link.com,2013-07-09 11:48:00,
2013-07-09 05:03:00,50.0,47.2,30.00,East,90,0.0,-999.0,90,-99.99,,,0.00,Acu-Link.com,2013-07-09 12:03:00,
2013-07-09 05:18:00,50.0,47.5,30.00,East,90,0.0,-999.0,91,-99.99,,,0.00,Acu-Link.com,2013-07-09 12:18:00,
2013-07-09 05:33:00,50.0,47.2,30.00,NE,45,0.0,-999.0,90,-99.99,,,0.00,Acu-Link.com,2013-07-09 12:33:00,
2013-07-09 05:48:00,50.0,47.2,30.00,ESE,112,0.0,-999.0,90,-99.99,,,0.00,Acu-Link.com,2013-07-09 12:48:00,
2013-07-09 06:04:00,50.0,47.2,30.00,ESE,112,0.0,-999.0,90,-99.99,,,0.00,Acu-Link.com,2013-07-09 13:04:00,
2013-07-09 06:19:00,50.0,47.2,30.00,SE,135,0.0,-999.0,90,-99.99,,,0.00,Acu-Link.com,2013-07-09 13:19:00,
2013-07-09 06:34:00,50.0,47.2,30.00,SSW,202,0.0,-999.0,90,-99.99,,,0.00,Acu-Link.com,2013-07-09 13:34:00,
2013-07-09 06:49:00,50.0,46.9,30.00,SSE,157,0.0,-999.0,89,-99.99,,,0.00,Acu-Link.com,2013-07-09 13:49:00,
2013-07-09 07:04:00,51.8,48.7,30.00,South,180,0.0,-999.0,89,-99.99,,,0.00,Acu-Link.com,2013-07-09 14:04:00,
2013-07-09 07:20:00,51.8,48.1,30.00,SW,225,0.0,-999.0,87,-99.99,,,0.00,Acu-Link.com,2013-07-09 14:20:00,
2013-07-09 07:35:00,53.6,49.2,30.00,SW,225,0.0,-999.0,85,-99.99,,,0.00,Acu-Link.com,2013-07-09 14:35:00,
2013-07-09 07:50:00,57.2,51.1,30.00,SW,225,1.6,-999.0,80,-99.99,,,0.00,Acu-Link.com,2013-07-09 14:50:00,
2013-07-09 08:05:00,59.0,51.4,30.01,SSW,202,0.0,-999.0,76,-99.99,,,0.00,Acu-Link.com,2013-07-09 15:05:00,
2013-07-09 08:20:00,60.8,50.6,30.00,West,270,0.0,-999.0,69,-99.99,,,0.00,Acu-Link.com,2013-07-09 15:20:00,
2013-07-09 08:35:00,62.6,51.1,30.00,NW,315,0.0,-999.0,66,-99.99,,,0.00,Acu-Link.com,2013-07-09 15:35:00,
2013-07-09 08:50:00,62.6,48.5,30.00,West,270,0.0,-999.0,60,-99.99,,,0.00,Acu-Link.com,2013-07-09 15:50:00,
2013-07-09 09:06:00,64.4,48.8,30.00,NNW,337,0.0,-999.0,57,-99.99,,,0.00,Acu-Link.com,2013-07-09 16:06:00,
2013-07-09 09:21:00,66.2,49.1,30.00,NE,45,2.7,-999.0,54,-99.99,,,0.00,Acu-Link.com,2013-07-09 16:21:00,
2013-07-09 09:36:00,68.0,49.2,29.99,South,180,0.0,-999.0,51,-99.99,,,0.00,Acu-Link.com,2013-07-09 16:36:00,
2013-07-09 09:51:00,69.8,47.5,29.99,NE,45,2.7,-999.0,45,-99.99,,,0.00,Acu-Link.com,2013-07-09 16:51:00,
2013-07-09 10:07:00,71.6,49.7,29.98,NNW,337,4.7,-999.0,46,-99.99,,,0.00,Acu-Link.com,2013-07-09 17:07:00,
2013-07-09 10:22:00,73.4,50.8,29.98,South,180,2.0,-999.0,45,-99.99,,,0.00,Acu-Link.com,2013-07-09 17:22:00,
2013-07-09 10:37:00,71.6,49.7,29.97,West,270,1.6,-999.0,46,-99.99,,,0.00,Acu-Link.com,2013-07-09 17:37:00,
2013-07-09 10:52:00,73.4,48.9,29.97,North,0,1.6,-999.0,42,-99.99,,,0.00,Acu-Link.com,2013-07-09 17:52:00,
2013-07-09 11:08:00,78.8,51.7,29.96,ESE,112,3.6,-999.0,39,-99.99,,,0.00,Acu-Link.com,2013-07-09 18:08:00,
2013-07-09 11:23:00,77.0,48.0,29.96,South,180,3.6,-999.0,36,-99.99,,,0.00,Acu-Link.com,2013-07-09 18:23:00,
2013-07-09 11:38:00,78.8,48.8,29.95,WSW,247,2.7,-999.0,35,-99.99,,,0.00,Acu-Link.com,2013-07-09 18:38:00,
2013-07-09 11:53:00,78.8,48.0,29.95,ENE,67,1.1,-999.0,34,-99.99,,,0.00,Acu-Link.com,2013-07-09 18:53:00,
2013-07-09 12:08:00,77.0,47.2,29.94,West,270,2.0,-999.0,35,-99.99,,,0.00,Acu-Link.com,2013-07-09 19:08:00,
2013-07-09 12:23:00,80.6,48.0,29.94,South,180,2.7,-999.0,32,-99.99,,,0.00,Acu-Link.com,2013-07-09 19:23:00,
2013-07-09 12:39:00,80.6,45.4,29.94,SSE,157,0.0,-999.0,29,-99.99,,,0.00,Acu-Link.com,2013-07-09 19:39:00,
2013-07-09 12:54:00,82.4,44.0,29.94,ESE,112,3.6,-999.0,26,-99.99,,,0.00,Acu-Link.com,2013-07-09 19:54:00,
2013-07-09 13:09:00,78.8,42.0,29.93,SW,225,1.1,-999.0,27,-99.99,,,0.00,Acu-Link.com,2013-07-09 20:09:00,
2013-07-09 13:24:00,80.6,45.4,29.93,WNW,292,2.0,-999.0,29,-99.99,,,0.00,Acu-Link.com,2013-07-09 20:24:00,
2013-07-09 13:39:00,82.4,46.0,29.92,WSW,247,5.6,-999.0,28,-99.99,,,0.00,Acu-Link.com,2013-07-09 20:39:00,
2013-07-09 13:54:00,84.2,45.6,29.92,South,180,4.7,-999.0,26,-99.99,,,0.00,Acu-Link.com,2013-07-09 20:54:00,
2013-07-09 14:09:00,78.8,43.8,29.92,WSW,247,1.6,-999.0,29,-99.99,,,0.00,Acu-Link.com,2013-07-09 21:09:00,
2013-07-09 14:24:00,78.8,46.4,29.92,SSW,202,2.0,-999.0,32,-99.99,,,0.00,Acu-Link.com,2013-07-09 21:24:00,
2013-07-09 14:39:00,78.8,44.7,29.91,West,270,0.0,-999.0,30,-99.99,,,0.00,Acu-Link.com,2013-07-09 21:39:00,
2013-07-09 14:54:00,78.8,48.0,29.92,NW,315,1.6,-999.0,34,-99.99,,,0.00,Acu-Link.com,2013-07-09 21:54:00,
2013-07-09 15:09:00,78.8,51.0,29.92,NE,45,2.7,-999.0,38,-99.99,,,0.00,Acu-Link.com,2013-07-09 22:09:00,
2013-07-09 15:24:00,69.8,55.3,29.92,WNW,292,0.0,-999.0,60,-99.99,,,0.01,Acu-Link.com,2013-07-09 22:24:00,
2013-07-09 15:40:00,71.6,59.6,29.92,ESE,112,0.0,-999.0,66,-99.99,,,0.01,Acu-Link.com,2013-07-09 22:40:00,
2013-07-09 15:55:00,73.4,52.5,29.91,NE,45,0.0,-999.0,48,-99.99,,,0.01,Acu-Link.com,2013-07-09 22:55:00,
2013-07-09 16:10:00,75.2,51.2,29.90,NE,45,0.0,-999.0,43,-99.99,,,0.01,Acu-Link.com,2013-07-09 23:10:00,
2013-07-09 16:25:00,75.2,53.6,29.90,East,90,0.0,-999.0,47,-99.99,,,0.01,Acu-Link.com,2013-07-09 23:25:00,
2013-07-09 16:40:00,78.8,52.4,29.90,ESE,112,0.0,-999.0,40,-99.99,,,0.01,Acu-Link.com,2013-07-09 23:40:00,
2013-07-09 16:55:00,78.8,47.2,29.90,WSW,247,0.0,-999.0,33,-99.99,,,0.01,Acu-Link.com,2013-07-09 23:55:00,
2013-07-09 17:10:00,80.6,48.0,29.89,ENE,67,2.0,-999.0,32,-99.99,,,0.01,Acu-Link.com,2013-07-10 00:10:00,
2013-07-09 17:25:00,80.6,44.5,29.88,ESE,112,0.0,-999.0,28,-99.99,,,0.01,Acu-Link.com,2013-07-10 00:25:00,
2013-07-09 17:40:00,78.8,44.7,29.88,SSE,157,0.0,-999.0,30,-99.99,,,0.01,Acu-Link.com,2013-07-10 00:40:00,
2013-07-09 17:55:00,80.6,46.3,29.88,East,90,0.0,-999.0,30,-99.99,,,0.01,Acu-Link.com,2013-07-10 00:55:00,
2013-07-09 18:11:00,80.6,46.3,29.88,South,180,0.0,-999.0,30,-99.99,,,0.01,Acu-Link.com,2013-07-10 01:11:00,
2013-07-09 18:26:00,78.8,46.4,29.88,NNW,337,1.1,-999.0,32,-99.99,,,0.01,Acu-Link.com,2013-07-10 01:26:00,
2013-07-09 18:41:00,78.8,48.8,29.88,ESE,112,0.0,-999.0,35,-99.99,,,0.01,Acu-Link.com,2013-07-10 01:41:00,
2013-07-09 18:56:00,77.0,48.7,29.88,SSE,157,0.0,-999.0,37,-99.99,,,0.01,Acu-Link.com,2013-07-10 01:56:00,
2013-07-09 19:12:00,77.0,49.4,29.88,East,90,0.0,-999.0,38,-99.99,,,0.01,Acu-Link.com,2013-07-10 02:12:00,
2013-07-09 19:27:00,75.2,49.9,29.88,NNE,22,0.0,-999.0,41,-99.99,,,0.01,Acu-Link.com,2013-07-10 02:27:00,
2013-07-09 19:42:00,73.4,46.9,29.88,ENE,67,0.0,-999.0,39,-99.99,,,0.01,Acu-Link.com,2013-07-10 02:42:00,
2013-07-09 19:57:00,71.6,47.3,29.87,NNW,337,0.0,-999.0,42,-99.99,,,0.01,Acu-Link.com,2013-07-10 02:57:00,
2013-07-09 20:12:00,71.6,47.9,29.87,West,270,0.0,-999.0,43,-99.99,,,0.01,Acu-Link.com,2013-07-10 03:12:00,
2013-07-09 20:28:00,71.6,47.3,29.87,NE,45,1.6,-999.0,42,-99.99,,,0.01,Acu-Link.com,2013-07-10 03:28:00,
2013-07-09 20:43:00,71.6,47.3,29.87,ENE,67,0.0,-999.0,42,-99.99,,,0.01,Acu-Link.com,2013-07-10 03:43:00,
2013-07-09 20:58:00,69.8,46.3,29.88,ESE,112,0.0,-999.0,43,-99.99,,,0.01,Acu-Link.com,2013-07-10 03:58:00,
2013-07-09 21:13:00,68.0,45.9,29.88,WNW,292,1.6,-999.0,45,-99.99,,,0.01,Acu-Link.com,2013-07-10 04:13:00,
2013-07-09 21:28:00,68.0,45.3,29.88,ESE,112,0.0,-999.0,44,-99.99,,,0.01,Acu-Link.com,2013-07-10 04:28:00,
2013-07-09 21:43:00,68.0,46.4,29.89,NNE,22,0.0,-999.0,46,-99.99,,,0.01,Acu-Link.com,2013-07-10 04:43:00,
2013-07-09 21:58:00,66.2,45.9,29.89,East,90,0.0,-999.0,48,-99.99,,,0.01,Acu-Link.com,2013-07-10 04:58:00,
2013-07-09 22:14:00,66.2,47.0,29.90,ENE,67,0.0,-999.0,50,-99.99,,,0.01,Acu-Link.com,2013-07-10 05:14:00,
2013-07-09 22:29:00,64.4,46.4,29.90,East,90,0.0,-999.0,52,-99.99,,,0.01,Acu-Link.com,2013-07-10 05:29:00,
2013-07-09 22:44:00,64.4,47.9,29.90,ESE,112,0.0,-999.0,55,-99.99,,,0.01,Acu-Link.com,2013-07-10 05:44:00,
2013-07-09 22:59:00,62.6,47.6,29.90,ENE,67,0.0,-999.0,58,-99.99,,,0.01,Acu-Link.com,2013-07-10 05:59:00,
2013-07-09 23:14:00,62.6,48.1,29.90,NNE,22,0.0,-999.0,59,-99.99,,,0.01,Acu-Link.com,2013-07-10 06:14:00,
2013-07-09 23:29:00,62.6,49.0,29.90,NE,45,0.0,-999.0,61,-99.99,,,0.01,Acu-Link.com,2013-07-10 06:29:00,
2013-07-09 23:44:00,60.8,48.5,29.90,NE,45,0.0,-999.0,64,-99.99,,,0.01,Acu-Link.com,2013-07-10 06:44:00,